createdAt,value
2023-02-22T00:02:11.300Z,176.98
2023-02-22T00:07:07.944Z,181.60
2023-02-22T00:09:35.042Z,175.25
2023-02-22T00:12:03.529Z,173.45
2023-02-22T00:14:30.600Z,172.85
2023-02-22T00:17:00.057Z,178.50
2023-02-22T00:19:30.916Z,175.98
2023-02-22T00:21:58.464Z,178.77
2023-02-22T00:24:26.856Z,177.73
2023-02-22T00:26:55.924Z,177.50
2023-02-22T00:29:25.987Z,177.80
2023-02-22T00:31:55.463Z,175.45
2023-02-22T00:34:24.463Z,176.80
2023-02-22T00:36:51.913Z,173.30
2023-02-22T00:39:19.302Z,172.98
2023-02-22T00:41:46.344Z,181.23
2023-02-22T00:44:13.678Z,182.18
2023-02-22T00:46:40.974Z,174.80
2023-02-22T00:49:08.216Z,178.30
2023-02-22T00:51:37.391Z,174.55
2023-02-22T00:54:06.749Z,179.60
2023-02-22T00:56:37.720Z,175.02
2023-02-22T00:59:05.129Z,180.35
2023-02-22T01:01:32.403Z,185.25
2023-02-22T01:04:01.003Z,176.30
2023-02-22T01:06:29.598Z,175.77
2023-02-22T01:09:02.649Z,179.52
2023-02-22T01:11:30.977Z,181.57
2023-02-22T01:13:58.010Z,177.30
2023-02-22T01:16:25.190Z,183.15
2023-02-22T01:18:52.653Z,186.43
2023-02-22T01:21:23.104Z,188.77
2023-02-22T01:23:50.021Z,182.45
2023-02-22T01:26:21.711Z,185.50
2023-02-22T01:28:48.926Z,187.75
2023-02-22T01:31:16.343Z,181.77
2023-02-22T01:33:44.671Z,185.60
2023-02-22T01:36:11.903Z,183.38
2023-02-22T01:38:41.006Z,181.50
2023-02-22T01:41:08.546Z,185.82
2023-02-22T01:43:40.062Z,186.23
2023-02-22T01:46:23.645Z,180.68
2023-02-22T01:48:56.405Z,180.75
2023-02-22T01:51:38.019Z,183.75
2023-02-22T01:54:42.552Z,184.32
2023-02-22T01:57:22.095Z,189.65
2023-02-22T01:59:55.081Z,179.70
2023-02-22T02:02:25.257Z,189.45
2023-02-22T02:04:56.692Z,185.32
2023-02-22T02:07:24.921Z,189.45
2023-02-22T02:10:00.627Z,189.45
2023-02-22T02:12:31.013Z,185.38
2023-02-22T02:15:32.390Z,191.20
2023-02-22T02:18:04.153Z,189.63
2023-02-22T02:20:51.957Z,192.35
2023-02-22T02:23:47.896Z,187.75
2023-02-22T02:26:52.794Z,190.98
2023-02-22T02:29:28.509Z,192.45
2023-02-22T02:32:01.502Z,183.70
2023-02-22T02:34:41.340Z,195.10
2023-02-22T02:37:22.063Z,184.25
2023-02-22T02:40:18.317Z,193.30
2023-02-22T02:42:55.456Z,187.70
2023-02-22T02:45:31.236Z,189.55
2023-02-22T02:48:00.154Z,178.88
2023-02-22T02:50:32.256Z,191.02
2023-02-22T02:53:04.649Z,191.52
2023-02-22T02:55:32.972Z,191.63
2023-02-22T02:58:00.696Z,191.02
2023-02-22T03:00:39.631Z,184.43
2023-02-22T03:03:18.361Z,194.00
2023-02-22T03:06:02.233Z,193.40
2023-02-22T03:08:53.435Z,185.80
2023-02-22T03:11:28.679Z,191.13
2023-02-22T03:14:12.534Z,190.75
2023-02-22T03:17:19.379Z,182.48
2023-02-22T03:20:05.107Z,190.23
2023-02-22T03:22:50.902Z,187.88
2023-02-22T03:25:28.810Z,188.73
2023-02-22T03:28:07.489Z,186.85
2023-02-22T03:30:42.845Z,192.93
2023-02-22T03:36:02.085Z,188.30
2023-02-22T03:38:34.030Z,191.52
2023-02-22T03:41:04.258Z,188.95
2023-02-22T03:43:40.984Z,198.50
2023-02-22T03:46:17.498Z,196.45
2023-02-22T03:49:00.405Z,191.32
2023-02-22T03:51:33.110Z,196.80
2023-02-22T03:54:05.755Z,194.23
2023-02-22T03:57:01.110Z,198.90
2023-02-22T03:59:32.659Z,196.63
2023-02-22T04:02:00.003Z,198.00
2023-02-22T04:04:29.503Z,196.65
2023-02-22T04:06:57.017Z,188.68
2023-02-22T04:09:24.830Z,193.32
2023-02-22T04:11:54.165Z,202.35
2023-02-22T04:14:23.813Z,201.15
2023-02-22T04:16:51.136Z,204.80
2023-02-22T04:19:21.084Z,200.70
2023-02-22T04:21:49.753Z,205.57
2023-02-22T04:24:22.494Z,210.10
2023-02-22T04:26:51.113Z,210.02
2023-02-22T04:29:24.349Z,197.90
2023-02-22T04:31:51.807Z,200.27
2023-02-22T04:34:18.873Z,204.63
2023-02-22T04:36:45.734Z,213.70
2023-02-22T04:39:13.145Z,213.30
2023-02-22T04:41:40.780Z,211.50
2023-02-22T04:44:10.608Z,214.90
2023-02-22T04:46:37.939Z,208.93
2023-02-22T04:49:07.424Z,212.68
2023-02-22T04:51:38.466Z,222.13
2023-02-22T04:54:11.054Z,211.65
2023-02-22T04:56:44.650Z,271.52
2023-02-22T04:59:14.764Z,212.57
2023-02-22T05:01:45.350Z,217.03
2023-02-22T05:04:12.301Z,223.10
2023-02-22T05:06:39.449Z,225.93
2023-02-22T05:09:09.119Z,214.00
2023-02-22T05:11:36.824Z,232.68
2023-02-22T05:14:04.135Z,230.23
2023-02-22T05:16:31.432Z,224.85
2023-02-22T05:19:00.060Z,222.00
2023-02-22T05:21:27.461Z,208.18
2023-02-22T05:23:57.220Z,228.57
2023-02-22T05:26:24.302Z,218.45
2023-02-22T05:28:54.940Z,242.10
2023-02-22T05:31:22.394Z,222.18
2023-02-22T05:33:50.175Z,213.90
2023-02-22T05:36:19.668Z,236.57
2023-02-22T05:38:46.570Z,207.88
2023-02-22T05:41:13.737Z,211.85
2023-02-22T05:43:41.110Z,218.15
2023-02-22T05:46:08.810Z,201.93
2023-02-22T05:48:37.105Z,209.00
2023-02-22T05:51:07.394Z,217.85
2023-02-22T05:53:34.597Z,212.18
2023-02-22T05:56:02.291Z,214.40
2023-02-22T05:58:29.719Z,219.98
2023-02-22T06:00:57.083Z,215.15
2023-02-22T06:03:24.327Z,242.45
2023-02-22T06:05:52.049Z,250.88
2023-02-22T06:08:19.746Z,249.18
2023-02-22T06:10:46.663Z,292.45
2023-02-22T06:13:14.551Z,345.80
2023-02-22T06:15:44.625Z,227.98
2023-02-22T06:18:12.276Z,291.83
2023-02-22T06:20:39.493Z,208.18
2023-02-22T06:23:06.575Z,234.77
2023-02-22T06:25:33.765Z,268.80
2023-02-22T06:28:01.517Z,239.57
2023-02-22T06:30:31.447Z,236.35
2023-02-22T06:33:04.633Z,245.32
2023-02-22T06:35:35.542Z,235.50
2023-02-22T06:38:02.715Z,205.77
2023-02-22T06:40:46.160Z,276.75
2023-02-22T06:43:14.534Z,233.80
2023-02-22T06:45:42.870Z,253.52
2023-02-22T06:48:13.589Z,247.07
2023-02-22T06:50:41.074Z,223.82
2023-02-22T06:53:09.647Z,220.82
2023-02-22T06:55:36.569Z,225.13
2023-02-22T06:58:05.120Z,219.77
2023-02-22T07:00:36.838Z,236.45
2023-02-22T07:03:04.987Z,223.48
2023-02-22T07:05:32.397Z,246.18
2023-02-22T07:08:05.551Z,202.13
2023-02-22T07:10:34.466Z,205.82
2023-02-22T07:13:03.373Z,251.52
2023-02-22T07:15:33.108Z,194.18
2023-02-22T07:18:03.304Z,204.75
2023-02-22T07:20:32.046Z,230.20
2023-02-22T07:23:00.706Z,203.18
2023-02-22T07:25:28.063Z,214.05
2023-02-22T07:27:55.095Z,203.85
2023-02-22T07:30:31.451Z,198.55
2023-02-22T07:33:02.776Z,200.32
2023-02-22T07:35:39.030Z,205.73
2023-02-22T07:38:10.849Z,205.20
2023-02-22T07:40:39.790Z,202.85
2023-02-22T07:43:19.882Z,204.43
2023-02-22T07:45:49.228Z,197.27
2023-02-22T07:48:18.970Z,199.43
2023-02-22T07:50:46.601Z,210.65
2023-02-22T07:53:18.448Z,210.48
2023-02-22T07:55:45.883Z,210.95
2023-02-22T07:58:17.914Z,193.82
2023-02-22T08:00:45.188Z,197.43
2023-02-22T08:03:19.365Z,191.70
2023-02-22T08:08:31.181Z,185.30
2023-02-22T08:10:59.814Z,189.88
2023-02-22T08:13:26.986Z,184.38
2023-02-22T08:15:54.374Z,184.77
2023-02-22T08:18:23.912Z,200.73
2023-02-22T08:20:54.336Z,195.07
2023-02-22T08:23:25.498Z,208.27
2023-02-22T08:25:52.969Z,233.85
2023-02-22T08:28:23.876Z,191.88
2023-02-22T08:30:51.857Z,195.80
2023-02-22T08:33:22.100Z,200.00
2023-02-22T08:35:50.159Z,203.70
2023-02-22T08:38:24.934Z,202.38
2023-02-22T08:40:53.590Z,188.30
2023-02-22T08:43:23.490Z,248.90
2023-02-22T08:45:52.631Z,188.98
2023-02-22T08:48:22.419Z,187.82
2023-02-22T08:50:52.717Z,206.50
2023-02-22T08:53:19.663Z,192.13
2023-02-22T08:55:47.082Z,191.88
2023-02-22T08:58:14.710Z,190.05
2023-02-22T09:00:45.009Z,189.05
2023-02-22T09:03:14.134Z,192.18
2023-02-22T09:05:43.152Z,194.20
2023-02-22T09:08:10.121Z,189.13
2023-02-22T09:10:37.351Z,192.93
2023-02-22T09:13:04.807Z,193.52
2023-02-22T09:15:33.293Z,179.73
2023-02-22T09:18:00.992Z,181.32
2023-02-22T09:20:29.144Z,180.98
2023-02-22T09:22:59.815Z,174.63
2023-02-22T09:25:27.522Z,178.70
2023-02-22T09:27:56.821Z,170.98
2023-02-22T09:30:33.244Z,175.45
2023-02-22T09:33:12.358Z,175.98
2023-02-22T09:35:46.758Z,169.48
2023-02-22T09:38:19.664Z,172.13
2023-02-22T09:40:50.805Z,175.45
2023-02-22T09:43:41.043Z,171.60
2023-02-22T09:46:35.300Z,162.73
2023-02-22T09:49:28.483Z,160.57
2023-02-22T09:52:12.299Z,160.18
2023-02-22T09:54:52.560Z,169.68
2023-02-22T09:57:42.444Z,168.88
2023-02-22T10:00:19.014Z,165.93
2023-02-22T10:03:15.482Z,192.65
2023-02-22T10:05:46.896Z,186.32
2023-02-22T10:08:19.252Z,170.50
2023-02-22T10:10:52.874Z,169.85
2023-02-22T10:13:39.862Z,166.98
2023-02-22T10:16:11.869Z,164.55
2023-02-22T10:18:46.567Z,161.63
2023-02-22T10:21:39.961Z,165.77
2023-02-22T10:24:26.623Z,160.82
2023-02-22T10:26:58.720Z,165.90
2023-02-22T10:29:40.671Z,160.60
2023-02-22T10:32:16.025Z,162.77
2023-02-22T10:34:54.121Z,161.40
2023-02-22T10:37:27.563Z,160.05
2023-02-22T10:42:29.710Z,173.70
2023-02-22T10:44:57.051Z,161.05
2023-02-22T10:47:24.902Z,176.00
2023-02-22T10:49:56.729Z,166.85
2023-02-22T10:52:30.508Z,166.52
2023-02-22T10:55:14.324Z,168.65
2023-02-22T10:57:49.961Z,159.40
2023-02-22T11:00:31.675Z,165.43
2023-02-22T11:03:02.686Z,165.43
2023-02-22T11:05:29.807Z,166.07
2023-02-22T11:08:17.640Z,167.00
2023-02-22T11:10:44.986Z,166.90
2023-02-22T11:13:33.548Z,162.88
2023-02-22T11:16:28.156Z,171.07
2023-02-22T11:19:05.426Z,167.32
2023-02-22T11:21:32.990Z,165.82
2023-02-22T11:24:08.710Z,164.68
2023-02-22T11:27:00.864Z,160.68
2023-02-22T11:29:37.512Z,162.43
2023-02-22T11:32:30.945Z,161.85
2023-02-22T11:35:29.799Z,162.70
2023-02-22T11:38:21.473Z,168.93
2023-02-22T11:41:15.037Z,164.07
2023-02-22T11:43:47.784Z,172.32
2023-02-22T11:46:29.083Z,167.13
2023-02-22T11:49:06.740Z,172.85
2023-02-22T11:51:54.854Z,171.88
2023-02-22T11:54:47.089Z,171.23
2023-02-22T11:57:22.950Z,168.98
2023-02-22T12:00:16.348Z,166.45
2023-02-22T12:02:56.773Z,171.15
2023-02-22T12:05:59.602Z,159.20
2023-02-22T12:09:07.913Z,166.00
2023-02-22T12:12:08.488Z,170.77
2023-02-22T12:14:58.327Z,170.40
2023-02-22T12:17:54.292Z,167.80
2023-02-22T12:20:52.508Z,174.18
2023-02-22T12:23:47.523Z,171.05
2023-02-22T12:26:21.079Z,170.55
2023-02-22T12:29:15.118Z,171.40
2023-02-22T12:31:45.849Z,175.70
2023-02-22T12:34:43.687Z,166.27
2023-02-22T12:37:17.671Z,165.45
2023-02-22T12:40:13.663Z,176.45
2023-02-22T12:42:56.072Z,174.45
2023-02-22T12:45:32.309Z,173.18
2023-02-22T12:48:04.350Z,170.60
2023-02-22T12:50:34.567Z,174.73
2023-02-22T12:53:04.314Z,170.23
2023-02-22T12:55:46.196Z,172.60
2023-02-22T12:58:34.987Z,171.80
2023-02-22T13:01:12.299Z,172.27
2023-02-22T13:03:45.171Z,176.55
2023-02-22T13:06:36.791Z,171.55
2023-02-22T13:09:24.774Z,174.48
2023-02-22T13:11:54.918Z,168.65
2023-02-22T13:14:37.320Z,174.70
2023-02-22T13:17:40.224Z,171.65
2023-02-22T13:20:25.919Z,174.02
2023-02-22T13:23:00.527Z,174.50
2023-02-22T13:25:39.587Z,173.40
2023-02-22T13:28:13.936Z,175.27
2023-02-22T13:31:15.544Z,174.52
2023-02-22T13:36:51.051Z,171.73
2023-02-22T13:39:36.870Z,174.77
2023-02-22T13:42:35.125Z,174.52
2023-02-22T13:45:29.848Z,175.57
2023-02-22T13:48:15.827Z,173.43
2023-02-22T13:51:18.714Z,169.60
2023-02-22T13:54:08.608Z,167.00
2023-02-22T13:56:43.009Z,171.15
2023-02-22T13:59:37.660Z,164.70
2023-02-22T14:02:08.014Z,164.93
2023-02-22T14:04:43.112Z,165.00
2023-02-22T14:07:19.086Z,163.27
2023-02-22T14:10:05.198Z,167.35
2023-02-22T14:12:38.758Z,168.27
2023-02-22T14:15:28.722Z,163.75
2023-02-22T14:18:02.741Z,165.55
2023-02-22T14:20:38.535Z,165.60
2023-02-22T14:23:24.140Z,164.85
2023-02-22T14:25:57.169Z,162.40
2023-02-22T14:28:54.728Z,167.55
2023-02-22T14:31:37.004Z,166.63
2023-02-22T14:34:22.652Z,168.38
2023-02-22T14:39:46.285Z,165.57
2023-02-22T14:42:33.610Z,160.95
2023-02-22T14:45:09.742Z,163.75
2023-02-22T14:47:43.998Z,161.82
2023-02-22T14:50:26.950Z,162.25
2023-02-22T14:53:13.818Z,162.70
2023-02-22T14:56:07.380Z,165.57
2023-02-22T14:58:40.599Z,168.05
2023-02-22T15:04:32.122Z,161.25
2023-02-22T15:07:01.633Z,163.02
2023-02-22T15:09:34.877Z,169.75
2023-02-22T15:12:05.503Z,170.30
2023-02-22T15:14:38.069Z,166.65
2023-02-22T15:17:18.953Z,169.13
2023-02-22T15:19:48.624Z,169.95
2023-02-22T15:22:27.907Z,172.23
2023-02-22T15:25:00.503Z,166.82
2023-02-22T15:27:29.097Z,166.20
2023-02-22T15:30:04.665Z,164.10
2023-02-22T15:32:53.469Z,173.52
2023-02-22T15:35:29.914Z,163.27
2023-02-22T15:38:04.357Z,164.43
2023-02-22T15:40:37.284Z,166.48
2023-02-22T15:43:08.856Z,170.00
2023-02-22T15:45:43.454Z,172.63
2023-02-22T15:48:14.622Z,166.40
2023-02-22T15:51:04.784Z,171.75
2023-02-22T15:54:02.296Z,171.38
2023-02-22T15:56:31.867Z,159.93
2023-02-22T15:59:09.167Z,168.52
2023-02-22T16:01:43.192Z,171.20
2023-02-22T16:04:26.381Z,163.32
2023-02-22T16:07:04.719Z,162.02
2023-02-22T16:09:34.087Z,160.60
2023-02-22T16:12:10.871Z,161.13
2023-02-22T16:14:37.836Z,167.63
2023-02-22T16:18:01.517Z,171.00
2023-02-22T16:20:32.714Z,167.05
2023-02-22T16:23:00.518Z,161.25
2023-02-22T16:25:35.746Z,167.88
2023-02-22T16:28:32.783Z,168.25
2023-02-22T16:31:00.657Z,167.43
2023-02-22T16:33:34.184Z,166.32
2023-02-22T16:36:08.334Z,164.65
2023-02-22T16:38:38.471Z,165.23
2023-02-22T16:41:07.898Z,167.02
2023-02-22T16:43:37.974Z,162.85
2023-02-22T16:46:07.352Z,165.38
2023-02-22T16:48:39.061Z,170.25
2023-02-22T16:51:18.210Z,171.70
2023-02-22T16:53:48.611Z,168.10
2023-02-22T16:56:18.668Z,169.38
2023-02-22T16:58:49.902Z,164.85
2023-02-22T17:01:20.203Z,172.52
2023-02-22T17:03:48.324Z,176.23
2023-02-22T17:06:15.812Z,174.10
2023-02-22T17:08:44.334Z,176.57
2023-02-22T17:11:14.764Z,178.43
2023-02-22T17:13:42.034Z,177.65
2023-02-22T17:16:15.572Z,175.70
2023-02-22T17:18:43.118Z,175.88
2023-02-22T17:21:12.004Z,173.65
2023-02-22T17:23:40.926Z,173.63
2023-02-22T17:26:08.257Z,177.45
2023-02-22T17:28:36.258Z,174.38
2023-02-22T17:31:03.343Z,190.55
2023-02-22T17:33:37.261Z,198.68
2023-02-22T17:36:05.452Z,170.18
2023-02-22T17:38:32.524Z,171.25
2023-02-22T17:41:13.015Z,232.88
2023-02-22T17:43:40.228Z,180.85
2023-02-22T17:46:20.112Z,192.10
2023-02-22T17:48:51.081Z,187.70
2023-02-22T17:51:19.547Z,246.73
2023-02-22T17:54:04.511Z,169.82
2023-02-22T17:56:31.763Z,176.45
2023-02-22T17:58:59.112Z,165.15
2023-02-22T18:01:32.061Z,178.18
2023-02-22T18:04:01.224Z,171.90
2023-02-22T18:06:30.225Z,171.43
2023-02-22T18:08:59.307Z,171.18
2023-02-22T18:11:32.875Z,172.70
2023-02-22T18:14:02.541Z,169.70
2023-02-22T18:16:29.890Z,175.20
2023-02-22T18:18:57.289Z,178.32
2023-02-22T18:21:27.106Z,174.35
2023-02-22T18:23:54.970Z,181.43
2023-02-22T18:26:25.799Z,175.63
2023-02-22T18:28:56.620Z,172.75
2023-02-22T18:31:25.132Z,176.38
2023-02-22T18:33:55.141Z,177.50
2023-02-22T18:36:25.465Z,184.30
2023-02-22T18:38:53.852Z,188.30
2023-02-22T18:41:26.618Z,186.00
2023-02-22T18:43:55.471Z,174.25
2023-02-22T18:46:24.199Z,178.38
2023-02-22T18:48:54.112Z,176.18
2023-02-22T18:51:21.380Z,184.52
2023-02-22T18:53:50.278Z,181.07
2023-02-22T18:56:32.153Z,183.80
2023-02-22T18:59:02.381Z,185.98
2023-02-22T19:01:31.601Z,182.75
2023-02-22T19:04:00.432Z,177.43
2023-02-22T19:06:27.628Z,187.65
2023-02-22T19:08:58.495Z,177.27
2023-02-22T19:11:26.169Z,174.73
2023-02-22T19:13:58.020Z,184.10
2023-02-22T19:16:29.630Z,177.13
2023-02-22T19:18:58.913Z,182.60
2023-02-22T19:21:28.626Z,179.40
2023-02-22T19:24:01.201Z,181.45
2023-02-22T19:26:30.910Z,184.95
2023-02-22T19:29:01.032Z,185.15
2023-02-22T19:31:31.749Z,181.80
2023-02-22T19:34:11.484Z,176.27
2023-02-22T19:36:47.611Z,186.43
2023-02-22T19:39:19.824Z,189.52
2023-02-22T19:41:47.429Z,184.55
2023-02-22T19:44:17.433Z,181.60
2023-02-22T19:46:45.740Z,181.02
2023-02-22T19:49:14.011Z,184.45
2023-02-22T19:51:40.985Z,174.77
2023-02-22T19:54:13.158Z,184.00
2023-02-22T19:56:41.084Z,179.18
2023-02-22T19:59:13.669Z,181.43
2023-02-22T20:01:46.097Z,186.73
2023-02-22T20:04:21.601Z,181.70
2023-02-22T20:07:00.050Z,190.37
2023-02-22T20:09:37.358Z,181.25
2023-02-22T20:12:05.637Z,186.55
2023-02-22T20:14:35.591Z,186.25
2023-02-22T20:17:09.681Z,182.80
2023-02-22T20:19:40.663Z,179.40
2023-02-22T20:22:10.257Z,188.77
2023-02-22T20:24:38.264Z,186.68
2023-02-22T20:27:05.334Z,184.38
2023-02-22T20:29:33.369Z,180.05
2023-02-22T20:32:04.627Z,184.55
2023-02-22T20:34:33.493Z,180.55
2023-02-22T20:37:01.320Z,188.13
2023-02-22T20:39:29.172Z,189.15
2023-02-22T20:42:01.045Z,185.70
2023-02-22T20:44:28.319Z,185.73
2023-02-22T20:46:55.794Z,179.77
2023-02-22T20:49:25.968Z,186.50
2023-02-22T20:51:55.193Z,183.10
2023-02-22T20:54:23.132Z,185.82
2023-02-22T20:56:53.167Z,188.52
2023-02-22T20:59:22.689Z,187.38
2023-02-22T21:01:51.154Z,188.57
2023-02-22T21:04:18.318Z,180.38
2023-02-22T21:06:46.828Z,183.95
2023-02-22T21:09:19.889Z,188.75
2023-02-22T21:11:47.700Z,190.20
2023-02-22T21:14:24.314Z,190.38
2023-02-22T21:16:54.975Z,191.48
2023-02-22T21:19:28.419Z,188.85
2023-02-22T21:21:59.792Z,187.05
2023-02-22T21:24:30.868Z,193.95
2023-02-22T21:27:02.789Z,184.48
2023-02-22T21:29:34.506Z,186.13
2023-02-22T21:32:04.928Z,194.88
2023-02-22T21:34:32.372Z,190.70
2023-02-22T21:36:59.578Z,192.63
2023-02-22T21:39:28.887Z,185.07
2023-02-22T21:42:00.748Z,182.20
2023-02-22T21:44:28.480Z,187.60
2023-02-22T21:46:55.495Z,181.05
2023-02-22T21:49:25.516Z,185.80
2023-02-22T21:52:00.870Z,189.93
2023-02-22T21:54:30.910Z,187.75
2023-02-22T21:57:00.474Z,185.80
2023-02-22T21:59:28.000Z,196.48
2023-02-22T22:01:56.596Z,187.02
2023-02-22T22:04:27.840Z,184.70
2023-02-22T22:06:59.551Z,185.85
2023-02-22T22:09:33.490Z,178.77
2023-02-22T22:12:05.537Z,172.65
2023-02-22T22:14:38.458Z,173.60
2023-02-22T22:17:08.048Z,185.23
2023-02-22T22:19:41.756Z,190.07
2023-02-22T22:22:09.324Z,189.30
2023-02-22T22:24:37.326Z,183.65
2023-02-22T22:27:06.757Z,181.68
2023-02-22T22:29:35.194Z,173.05
2023-02-22T22:32:07.128Z,184.13
2023-02-22T22:34:38.153Z,180.60
2023-02-22T22:37:05.077Z,186.45
2023-02-22T22:39:32.398Z,184.15
2023-02-22T22:42:00.478Z,183.90
2023-02-22T22:44:33.028Z,185.85
2023-02-22T22:47:02.542Z,189.00
2023-02-22T22:49:31.701Z,185.90
2023-02-22T22:56:06.054Z,192.98
2023-02-22T22:59:39.901Z,179.27
2023-02-22T23:06:46.221Z,193.80
2023-02-22T23:17:52.558Z,180.50
2023-02-22T23:21:30.509Z,187.25
2023-02-22T23:25:08.543Z,184.85
2023-02-22T23:28:47.595Z,190.52
2023-02-22T23:32:25.412Z,192.27
2023-02-22T23:35:27.473Z,187.52
2023-02-22T23:39:31.883Z,192.18
2023-02-22T23:46:27.003Z,186.95
2023-02-22T23:57:02.691Z,185.68
2023-02-22T23:59:33.737Z,188.00
